Time;durP1;ratioP1;P1;durP2;ratioP2;P2;SDS_P1;SDS_P2;PMS_P1;PMS_P2;Temp;Humidity;BMP_temperature;BMP_pressure;BME280_temperature;BME280_humidity;BME280_pressure;Samples;Min_cycle;Max_cycle;Signal;HPM_P1;HPM_P2
2022/05/05 00:01:41;;;;;;;6.80;6.10;;;;;;;13.23;64.89;94889.03;5063695;28;20459;-72
2022/05/05 00:04:08;;;;;;;6.47;5.70;;;;;;;13.22;64.83;94895.31;5065749;28;20428;-73
2022/05/05 00:06:33;;;;;;;7.90;7.10;;;;;;;13.28;64.65;94896.31;5064332;28;20423;-73
2022/05/05 00:08:59;;;;;;;8.00;7.20;;;;;;;13.47;63.71;94895.50;5065852;28;20444;-72
2022/05/05 00:14:24;;;;;;;7.10;6.40;;;;;;;13.29;64.27;94888.19;5059912;28;20567;-73
2022/05/05 00:16:56;;;;;;;8.23;7.43;;;;;;;13.14;65.34;94889.44;5059989;28;20903;-72
2022/05/05 00:19:22;;;;;;;9.70;7.13;;;;;;;13.04;64.22;94884.59;5058057;28;20444;-72
2022/05/05 00:21:47;;;;;;;9.60;7.87;;;;;;;13.12;64.09;94886.22;5065201;28;20493;-73
2022/05/05 00:24:13;;;;;;;8.07;7.00;;;;;;;13.34;63.57;94887.63;5052749;28;20433;-73
2022/05/05 00:26:39;;;;;;;9.43;7.83;;;;;;;13.26;64.35;94890.41;5064932;28;20622;-73
2022/05/05 00:29:05;;;;;;;9.40;6.80;;;;;;;13.20;64.21;94883.38;5063784;28;20246;-72
2022/05/05 00:31:30;;;;;;;7.87;7.07;;;;;;;13.26;64.22;94883.38;5060660;28;20444;-72
2022/05/05 00:33:56;;;;;;;8.50;6.27;;;;;;;13.29;64.19;94882.13;5063903;28;20257;-73
2022/05/05 00:36:21;;;;;;;8.67;7.13;;;;;;;13.25;64.79;94886.19;5064487;28;20175;-73
2022/05/05 00:38:47;;;;;;;9.30;7.90;;;;;;;13.23;65.32;94894.28;5063555;28;20174;-73
2022/05/05 00:41:12;;;;;;;8.00;6.43;;;;;;;13.61;64.04;94888.38;5064575;28;20176;-73
2022/05/05 00:43:38;;;;;;;12.60;7.37;;;;;;;13.50;64.03;94890.81;5064004;28;20237;-73
2022/05/05 00:46:04;;;;;;;8.63;7.73;;;;;;;13.40;64.92;94893.88;5064817;28;20197;-73
2022/05/05 00:48:29;;;;;;;8.23;7.10;;;;;;;13.46;65.08;94891.22;5058163;28;20179;-73
2022/05/05 00:50:55;;;;;;;8.33;7.20;;;;;;;13.47;63.97;94894.69;5064457;28;20178;-73
2022/05/05 00:53:21;;;;;;;7.47;6.77;;;;;;;13.69;63.17;94887.31;5051137;28;20175;-73
2022/05/05 00:55:50;;;;;;;7.10;6.50;;;;;;;13.45;63.35;94891.47;5064397;28;20435;-73
2022/05/05 00:58:17;;;;;;;9.17;7.40;;;;;;;13.42;64.15;94892.66;5064387;28;20429;-72
2022/05/05 01:00:42;;;;;;;5.63;5.10;;;;;;;13.43;62.66;94883.78;5062109;28;20861;-72
2022/05/05 01:03:09;;;;;;;8.10;6.53;;;;;;;13.20;63.29;94888.63;5066885;28;20475;-72
2022/05/05 01:05:38;;;;;;;10.53;6.93;;;;;;;12.99;64.60;94890.44;5064029;28;20170;-73
2022/05/05 01:08:04;;;;;;;8.03;7.23;;;;;;;12.96;65.48;94890.88;5063222;28;20475;-72
2022/05/05 01:10:30;;;;;;;7.97;6.77;;;;;;;13.02;65.68;94897.13;5096247;28;20424;-73
2022/05/05 01:12:55;;;;;;;7.37;6.33;;;;;;;13.19;64.78;94889.66;5067404;28;20425;-73
2022/05/05 01:15:21;;;;;;;7.70;6.70;;;;;;;13.01;65.04;94885.00;5068243;28;20204;-72
2022/05/05 01:17:47;;;;;;;7.40;6.60;;;;;;;12.98;65.26;94896.72;5068436;28;20186;-73
2022/05/05 01:20:18;;;;;;;6.70;6.10;;;;;;;13.07;65.25;94892.06;5065799;28;20439;-73
2022/05/05 01:22:45;;;;;;;9.83;7.20;;;;;;;12.93;64.39;94883.38;5062588;28;20211;-73
2022/05/05 01:28:14;;;;;;;6.50;5.90;;;;;;;12.29;65.99;94882.13;5068415;28;20471;-72
2022/05/05 01:30:42;;;;;;;8.70;6.30;;;;;;;12.42;66.13;94889.22;5067043;28;20470;-73
2022/05/05 01:33:12;;;;;;;12.20;7.47;;;;;;;12.52;65.60;94892.28;5063428;28;20436;-73
2022/05/05 01:35:38;;;;;;;8.40;6.43;;;;;;;12.64;65.08;94890.66;5067859;28;20417;-72
2022/05/05 01:38:03;;;;;;;10.30;7.10;;;;;;;12.60;65.67;94889.44;5055778;28;20786;-73
2022/05/05 01:40:29;;;;;;;8.43;6.97;;;;;;;12.67;65.40;94900.78;5067651;28;20420;-73
2022/05/05 01:42:55;;;;;;;6.80;6.20;;;;;;;12.69;65.07;94893.50;5067916;28;20199;-73
2022/05/05 01:45:20;;;;;;;7.00;6.40;;;;;;;12.75;64.63;94902.41;5067980;28;20166;-72
2022/05/05 01:47:46;;;;;;;7.93;6.80;;;;;;;12.77;64.71;94904.81;5066251;28;20437;-73
2022/05/05 01:50:11;;;;;;;7.00;6.40;;;;;;;12.78;64.43;94909.06;5067901;28;20171;-73
2022/05/05 01:52:37;;;;;;;9.77;6.70;;;;;;;12.79;64.27;94903.59;5063366;28;20170;-72
2022/05/05 01:55:04;;;;;;;7.20;6.10;;;;;;;12.78;64.05;94909.06;5067621;28;20197;-72
2022/05/05 01:57:29;;;;;;;8.70;7.90;;;;;;;12.84;64.09;94910.88;5069318;28;20201;-72
2022/05/05 01:59:54;;;;;;;7.47;6.70;;;;;;;12.42;65.68;94908.38;5071734;28;20416;-73
2022/05/05 02:02:20;;;;;;;7.30;6.70;;;;;;;12.53;65.52;94908.81;5070731;28;20190;-73
2022/05/05 02:04:45;;;;;;;8.80;6.70;;;;;;;12.72;64.73;94909.84;5067069;28;20185;-73
2022/05/05 02:07:11;;;;;;;7.50;6.73;;;;;;;12.75;64.81;94906.81;5067357;28;20198;-73
2022/05/05 02:09:36;;;;;;;8.33;7.63;;;;;;;12.80;65.03;94914.91;5067088;28;20264;-73
2022/05/05 02:12:02;;;;;;;14.33;7.60;;;;;;;12.63;65.52;94910.03;5068971;28;20442;-73
2022/05/05 02:14:27;;;;;;;9.60;8.27;;;;;;;12.61;65.45;94917.31;5061907;28;20199;-73
2022/05/05 02:16:53;;;;;;;7.80;7.10;;;;;;;12.57;65.63;94916.09;5068512;28;20515;-73
2022/05/05 02:19:18;;;;;;;8.20;7.20;;;;;;;12.50;65.49;94917.88;5067121;28;20206;-73
2022/05/05 02:21:44;;;;;;;8.00;7.20;;;;;;;12.61;65.37;94913.88;5067275;28;20276;-73
2022/05/05 02:24:09;;;;;;;7.77;6.53;;;;;;;12.33;65.54;94919.28;5062006;28;20182;-73
2022/05/05 02:26:35;;;;;;;6.27;5.73;;;;;;;12.46;65.44;94920.13;5067353;28;20197;-72
2022/05/05 02:29:02;;;;;;;7.40;6.57;;;;;;;12.35;65.71;94918.09;5067185;28;20226;-73
2022/05/05 02:31:27;;;;;;;6.97;6.40;;;;;;;12.14;65.85;94918.22;5066727;28;20166;-72
2022/05/05 02:33:53;;;;;;;7.53;6.67;;;;;;;12.26;65.54;94916.66;5076048;28;20508;-72
2022/05/05 02:39:02;;;;;;;6.40;5.90;;;;;;;12.32;65.49;94928.16;5060378;28;20193;-72
2022/05/05 02:41:27;;;;;;;6.30;5.70;;;;;;;12.37;64.96;94916.06;5067569;28;20412;-73
2022/05/05 02:43:53;;;;;;;6.53;5.77;;;;;;;12.24;64.89;94914.22;5066872;28;20190;-72
2022/05/05 02:46:18;;;;;;;6.07;5.60;;;;;;;12.25;65.51;94918.44;5064054;28;20189;-72
2022/05/05 02:48:44;;;;;;;13.43;6.30;;;;;;;12.20;63.92;94930.53;5061523;28;20183;-73
2022/05/05 02:51:09;;;;;;;8.17;7.37;;;;;;;11.76;66.32;94922.09;5062983;28;20170;-72
2022/05/05 02:56:19;;;;;;;6.70;5.87;;;;;;;11.79;65.91;94926.13;5067107;28;20173;-73
2022/05/05 02:58:44;;;;;;;7.93;7.00;;;;;;;11.85;65.99;94934.00;5066771;28;20428;-73
2022/05/05 03:01:10;;;;;;;6.43;5.93;;;;;;;12.01;65.38;94939.94;5066948;28;20279;-73
2022/05/05 03:03:35;;;;;;;8.27;6.17;;;;;;;12.10;64.85;94941.41;5066078;28;20210;-72
2022/05/05 03:06:01;;;;;;;7.00;6.40;;;;;;;12.05;66.07;94943.81;5061080;28;20175;-73
2022/05/05 03:08:26;;;;;;;8.20;6.97;;;;;;;12.07;65.85;94944.44;5066944;28;20201;-73
2022/05/05 03:10:52;;;;;;;7.23;6.63;;;;;;;12.06;66.21;94955.91;5066330;28;20178;-73
2022/05/05 03:13:17;;;;;;;9.47;7.97;;;;;;;12.06;66.54;94961.16;5066560;28;20198;-72
2022/05/05 03:15:44;;;;;;;9.00;7.57;;;;;;;11.64;68.33;94968.19;5066303;28;20263;-73
2022/05/05 03:18:10;;;;;;;8.23;7.53;;;;;;;11.80;67.91;94965.25;5052732;28;20607;-72
2022/05/05 03:20:36;;;;;;;10.00;8.53;;;;;;;12.00;67.25;94956.69;5066501;28;20431;-73
2022/05/05 03:23:01;;;;;;;13.03;8.73;;;;;;;12.23;67.04;94967.69;5065421;28;20477;-73
2022/05/05 03:25:27;;;;;;;7.40;6.77;;;;;;;11.84;67.79;94956.00;5061372;28;20627;-73
2022/05/05 03:27:52;;;;;;;18.87;7.83;;;;;;;11.73;68.12;94954.72;5055408;28;20273;-72
2022/05/05 03:30:18;;;;;;;10.27;7.20;;;;;;;11.98;67.40;94956.88;5063886;28;20222;-72
2022/05/05 03:32:43;;;;;;;9.60;8.67;;;;;;;11.86;67.89;94961.84;5064888;28;20210;-73
2022/05/05 03:35:09;;;;;;;8.10;7.30;;;;;;;12.09;67.06;94958.97;5065330;28;20182;-74
2022/05/05 03:37:35;;;;;;;8.80;8.00;;;;;;;12.15;66.95;94954.75;5060965;28;20201;-72
2022/05/05 03:40:00;;;;;;;9.90;9.07;;;;;;;12.29;66.90;94956.44;5065542;28;20409;-73
2022/05/05 03:42:26;;;;;;;10.57;9.47;;;;;;;12.27;66.71;94962.84;5065321;28;20209;-74
2022/05/05 03:44:51;;;;;;;14.40;10.40;;;;;;;12.39;66.51;94960.50;5065133;28;20174;-73
2022/05/05 03:47:17;;;;;;;12.50;10.30;;;;;;;12.46;66.27;94971.78;5065681;28;20175;-73
2022/05/05 03:49:42;;;;;;;16.40;10.07;;;;;;;12.46;66.35;94977.03;5062804;28;20189;-73
2022/05/05 03:52:08;;;;;;;18.80;11.93;;;;;;;12.56;66.43;94972.25;5063802;28;20178;-73
2022/05/05 03:54:33;;;;;;;12.30;10.03;;;;;;;12.57;66.60;94973.84;5064526;28;20179;-73
2022/05/05 03:56:59;;;;;;;16.47;13.23;;;;;;;12.53;66.79;94977.88;5065075;28;20240;-73
2022/05/05 03:59:25;;;;;;;13.93;12.27;;;;;;;12.46;66.96;94966.53;5065413;28;20174;-73
2022/05/05 04:01:51;;;;;;;19.23;12.50;;;;;;;12.46;67.35;94969.16;5064328;28;20199;-72
2022/05/05 04:04:17;;;;;;;16.63;12.67;;;;;;;11.93;69.23;94977.63;5065564;28;20186;-73
2022/05/05 04:06:43;;;;;;;18.47;13.90;;;;;;;12.23;68.55;94977.38;5063962;28;20488;-73
2022/05/05 04:09:10;;;;;;;17.50;14.00;;;;;;;12.52;67.15;94976.28;5064911;28;20497;-73
2022/05/05 04:11:36;;;;;;;18.43;13.20;;;;;;;12.29;67.85;94982.66;5064820;28;20408;-73
2022/05/05 04:14:03;;;;;;;17.17;14.40;;;;;;;12.50;67.30;94994.84;5063721;28;20467;-73
2022/05/05 04:16:31;;;;;;;20.00;15.10;;;;;;;12.70;66.09;94994.88;5064849;28;20423;-73
2022/05/05 04:18:56;;;;;;;19.50;16.30;;;;;;;12.14;68.00;94995.13;5064462;28;20425;-73
2022/05/05 04:21:22;;;;;;;21.40;15.47;;;;;;;12.34;67.80;95000.44;5064938;28;20428;-73
2022/05/05 04:23:47;;;;;;;19.63;16.03;;;;;;;12.51;67.17;95006.16;5063798;28;20707;-73
2022/05/05 04:26:14;;;;;;;21.60;16.37;;;;;;;12.13;69.01;95001.34;5062810;28;20228;-73
2022/05/05 04:28:44;;;;;;;22.93;16.43;;;;;;;12.65;67.31;95005.19;5064167;28;20509;-73
2022/05/05 04:31:12;;;;;;;19.90;14.47;;;;;;;12.73;66.36;95009.44;5063558;28;20471;-73
2022/05/05 04:33:38;;;;;;;21.00;14.70;;;;;;;12.73;66.92;95011.25;5064248;28;20508;-72
2022/05/05 04:36:04;;;;;;;24.17;19.00;;;;;;;12.69;67.00;95014.28;5052319;28;20430;-72
2022/05/05 04:38:30;;;;;;;24.20;17.57;;;;;;;12.83;66.80;95011.69;5063658;28;20448;-72
2022/05/05 04:40:55;;;;;;;20.00;15.47;;;;;;;13.01;65.48;95013.72;5056871;28;20417;-72
2022/05/05 04:43:20;;;;;;;18.23;14.53;;;;;;;12.50;66.99;95009.75;5065940;28;20210;-71
2022/05/05 04:45:46;;;;;;;24.00;15.90;;;;;;;12.59;67.14;95007.78;5059369;28;20210;-72
2022/05/05 04:48:11;;;;;;;24.57;18.97;;;;;;;12.77;66.85;95007.25;5048031;28;20178;-73
2022/05/05 04:50:37;;;;;;;23.27;17.43;;;;;;;13.01;66.09;95000.59;5064861;28;20174;-72
2022/05/05 04:53:02;;;;;;;22.40;18.40;;;;;;;12.94;66.53;95005.84;5063818;28;20209;-73
2022/05/05 04:55:28;;;;;;;24.40;19.23;;;;;;;12.89;67.25;95016.16;5064635;28;20232;-73
2022/05/05 04:57:53;;;;;;;27.20;19.87;;;;;;;13.10;66.72;95020.41;5064625;28;20182;-73
2022/05/05 05:00:19;;;;;;;22.67;18.47;;;;;;;13.29;65.90;95014.34;5062962;28;20182;-72
2022/05/05 05:02:45;;;;;;;30.63;18.37;;;;;;;13.30;66.28;95017.84;5063004;28;20210;-72
2022/05/05 05:05:10;;;;;;;24.90;19.33;;;;;;;13.36;65.74;95019.66;5063917;28;20242;-72
2022/05/05 05:07:36;;;;;;;23.17;20.60;;;;;;;13.37;65.41;95013.38;5064178;28;20258;-72
2022/05/05 05:10:02;;;;;;;27.57;19.93;;;;;;;13.15;66.19;95012.75;5095855;28;20170;-72
2022/05/05 05:12:28;;;;;;;25.73;20.03;;;;;;;12.83;66.80;95014.31;5063453;28;20194;-72
2022/05/05 05:14:53;;;;;;;28.90;21.80;;;;;;;12.87;67.30;95026.03;5063037;28;20428;-72
2022/05/05 05:17:18;;;;;;;26.60;21.13;;;;;;;13.39;65.55;95024.53;5063612;28;20167;-72
2022/05/05 05:19:44;;;;;;;26.07;20.03;;;;;;;13.38;66.04;95017.63;5064716;28;20260;-72
2022/05/05 05:22:10;;;;;;;25.97;20.17;;;;;;;13.35;65.68;95020.66;5063712;28;20189;-73
2022/05/05 05:24:35;;;;;;;29.90;21.33;;;;;;;12.57;68.44;95018.47;5096297;28;20175;-72
2022/05/05 05:27:00;;;;;;;26.57;19.73;;;;;;;12.74;67.23;95021.56;5063868;28;20186;-72
2022/05/05 05:29:26;;;;;;;32.63;23.90;;;;;;;13.57;65.75;95021.28;5063762;28;20313;-72
2022/05/05 05:31:51;;;;;;;29.00;24.27;;;;;;;13.69;64.65;95024.09;5063170;28;20190;-72
2022/05/05 05:34:17;;;;;;;26.47;21.33;;;;;;;13.31;65.76;95019.44;5062826;28;20185;-72
2022/05/05 05:36:42;;;;;;;30.17;22.93;;;;;;;13.66;65.37;95024.53;5063793;28;20178;-73
2022/05/05 05:39:08;;;;;;;31.17;22.47;;;;;;;14.15;62.38;95033.75;5060501;28;20227;-72
2022/05/05 05:41:33;;;;;;;29.63;22.10;;;;;;;14.12;63.66;95033.34;5088492;28;20222;-72
2022/05/05 05:44:00;;;;;;;32.37;22.80;;;;;;;13.81;65.07;95037.44;5055608;28;20210;-73
2022/05/05 05:46:25;;;;;;;32.80;26.80;;;;;;;14.44;63.47;95039.53;5050530;28;20166;-72
2022/05/05 05:48:51;;;;;;;31.67;23.70;;;;;;;14.72;62.37;95041.03;5063303;28;20433;-72
2022/05/05 05:51:16;;;;;;;33.20;25.50;;;;;;;14.83;60.98;95040.38;5063720;28;20183;-73
2022/05/05 05:53:42;;;;;;;36.53;24.23;;;;;;;14.87;61.40;95043.41;5062852;28;20197;-72
2022/05/05 05:56:07;;;;;;;31.97;24.10;;;;;;;14.42;62.43;95045.00;5064218;28;20182;-73
2022/05/05 05:58:36;;;;;;;32.07;24.63;;;;;;;14.09;63.38;95042.44;5060611;28;20178;-72
2022/05/05 06:01:02;;;;;;;34.07;24.30;;;;;;;14.68;61.39;95038.00;5067098;28;20231;-73
2022/05/05 06:06:11;;;;;;;32.43;24.83;;;;;;;14.88;61.94;95026.59;5057781;28;20632;-72
2022/05/05 06:08:37;;;;;;;37.23;26.47;;;;;;;15.24;60.45;95025.94;5066905;28;20429;-72
2022/05/05 06:11:02;;;;;;;33.03;24.87;;;;;;;14.68;62.08;95035.38;5060833;28;20204;-72
2022/05/05 06:13:27;;;;;;;34.97;25.03;;;;;;;14.77;61.31;95039.38;5065633;28;20177;-74
2022/05/05 06:15:53;;;;;;;35.30;25.80;;;;;;;15.01;60.74;95037.06;5065045;28;20177;-73
2022/05/05 06:18:19;;;;;;;31.60;25.17;;;;;;;15.36;60.09;95037.41;5096842;28;20174;-72
2022/05/05 06:20:45;;;;;;;32.47;25.63;;;;;;;14.71;62.43;95029.69;5067159;28;20194;-72
2022/05/05 06:23:10;;;;;;;32.73;24.70;;;;;;;14.88;62.21;95032.66;5063927;28;20248;-73
2022/05/05 06:25:36;;;;;;;33.57;25.63;;;;;;;15.41;60.64;95032.31;5067051;28;20421;-72
2022/05/05 06:28:03;;;;;;;32.93;26.57;;;;;;;15.40;60.29;95028.06;5064372;28;20179;-72
2022/05/05 06:30:29;;;;;;;32.30;27.77;;;;;;;15.57;59.85;95028.31;5065307;28;20233;-72
2022/05/05 06:32:54;;;;;;;35.80;27.93;;;;;;;15.76;58.88;95028.41;5064427;28;21225;-73
2022/05/05 06:35:19;;;;;;;30.60;26.60;;;;;;;15.93;58.36;95029.44;5059683;28;20168;-72
2022/05/05 06:37:50;;;;;;;31.90;26.73;;;;;;;16.31;57.21;95035.56;5066924;28;20610;-73
2022/05/05 06:40:16;;;;;;;29.97;24.90;;;;;;;16.37;56.59;95034.69;5061307;28;20163;-72
2022/05/05 06:42:41;;;;;;;37.20;26.50;;;;;;;15.86;58.80;95028.72;5066053;28;20459;-73
2022/05/05 06:45:08;;;;;;;33.80;27.53;;;;;;;15.86;58.02;95033.19;5066040;28;20432;-73
2022/05/05 06:47:33;;;;;;;38.13;26.77;;;;;;;16.23;57.65;95038.50;5064508;28;20228;-73
2022/05/05 06:49:58;;;;;;;34.27;28.60;;;;;;;15.89;58.31;95038.03;5066523;28;20413;-72
2022/05/05 06:52:24;;;;;;;32.17;26.37;;;;;;;16.64;55.95;95040.47;5065743;28;20163;-72
2022/05/05 06:54:49;;;;;;;37.20;29.93;;;;;;;16.20;57.85;95039.75;5063685;28;20491;-72
2022/05/05 06:57:15;;;;;;;34.50;27.20;;;;;;;16.56;57.37;95038.94;5066156;28;20657;-73
2022/05/05 06:59:40;;;;;;;39.20;27.70;;;;;;;16.39;56.89;95045.84;5064012;28;20166;-72
2022/05/05 07:02:06;;;;;;;36.60;29.83;;;;;;;15.89;57.95;95043.31;5060438;28;20198;-73
2022/05/05 07:07:17;;;;;;;35.43;28.27;;;;;;;15.55;59.71;95042.75;5061958;28;20186;-73
2022/05/05 07:12:29;;;;;;;34.73;27.50;;;;;;;16.23;57.66;95038.50;5059783;28;20416;-73
2022/05/05 07:14:55;;;;;;;35.63;28.07;;;;;;;16.36;57.45;95035.72;5065444;28;20416;-72
2022/05/05 07:17:21;;;;;;;33.57;24.83;;;;;;;17.00;54.98;95040.66;5065752;28;20420;-72
2022/05/05 07:19:47;;;;;;;33.93;25.73;;;;;;;16.98;54.77;95039.06;5066051;28;20234;-73
2022/05/05 07:22:12;;;;;;;30.97;23.53;;;;;;;16.58;55.52;95041.38;5095370;28;20547;-73
2022/05/05 07:24:38;;;;;;;31.83;26.17;;;;;;;16.67;55.99;95040.00;5066333;28;20587;-72
2022/05/05 07:27:04;;;;;;;34.77;27.30;;;;;;;16.89;55.62;95037.75;5065616;28;20174;-72
2022/05/05 07:29:30;;;;;;;33.87;25.73;;;;;;;16.07;57.63;95040.69;5066032;28;20215;-72
2022/05/05 07:31:56;;;;;;;35.47;27.57;;;;;;;16.14;57.86;95040.63;5064323;28;20437;-72
2022/05/05 07:34:22;;;;;;;34.47;28.43;;;;;;;16.80;56.71;95039.06;5061345;28;20433;-72
2022/05/05 07:36:49;;;;;;;35.00;24.73;;;;;;;17.61;53.83;95031.59;5065783;28;20417;-72
2022/05/05 07:39:14;;;;;;;33.97;25.80;;;;;;;17.87;53.52;95042.81;5060775;28;20498;-72
2022/05/05 07:41:40;;;;;;;31.37;24.10;;;;;;;18.10;52.49;95045.47;5062116;28;20492;-72
2022/05/05 07:44:06;;;;;;;35.97;27.87;;;;;;;18.30;52.38;95042.44;5065534;28;20182;-73
2022/05/05 07:46:33;;;;;;;29.97;23.70;;;;;;;18.24;51.93;95050.53;5065763;28;20166;-73
2022/05/05 07:48:59;;;;;;;30.17;22.77;;;;;;;18.63;50.90;95045.50;5057004;28;20439;-73
2022/05/05 07:51:24;;;;;;;28.93;22.23;;;;;;;18.69;50.22;95052.53;5062909;28;20413;-73
2022/05/05 07:56:34;;;;;;;30.37;22.80;;;;;;;18.59;50.79;95047.81;5064107;28;20173;-73
2022/05/05 07:58:59;;;;;;;28.43;23.83;;;;;;;18.65;51.03;95049.53;5062051;28;20429;-72
2022/05/05 08:01:26;;;;;;;29.97;24.37;;;;;;;19.06;50.28;95054.84;5060842;28;20163;-72
2022/05/05 08:03:52;;;;;;;33.10;22.00;;;;;;;18.97;50.34;95048.28;5061878;28;20206;-73
2022/05/05 08:06:17;;;;;;;29.07;21.07;;;;;;;19.67;47.90;95050.59;5052799;28;20457;-72
2022/05/05 08:08:43;;;;;;;21.47;17.77;;;;;;;20.02;46.68;95059.41;5051983;28;20191;-72
2022/05/05 08:11:09;;;;;;;28.40;19.00;;;;;;;20.07;46.34;95059.44;5064005;28;20200;-73
2022/05/05 08:13:34;;;;;;;27.90;21.07;;;;;;;19.92;46.92;95057.41;5062457;28;20557;-73
2022/05/05 08:16:01;;;;;;;24.30;20.07;;;;;;;20.19;46.80;95056.72;5062347;28;20423;-73
2022/05/05 08:18:26;;;;;;;23.80;19.37;;;;;;;19.22;48.15;95054.09;5056500;28;20194;-73
2022/05/05 08:20:52;;;;;;;26.03;19.20;;;;;;;19.88;47.01;95053.59;5061014;28;20436;-72
2022/05/05 08:23:18;;;;;;;22.63;19.30;;;;;;;20.05;46.59;95051.75;5063683;28;20294;-72
2022/05/05 08:28:28;;;;;;;24.87;17.60;;;;;;;20.38;45.36;95044.75;5062776;28;20432;-73
2022/05/05 08:30:54;;;;;;;22.40;16.23;;;;;;;20.92;43.80;95045.94;5064023;28;20453;-72
2022/05/05 08:33:19;;;;;;;19.87;15.97;;;;;;;20.93;43.98;95052.91;5063438;28;20183;-72
2022/05/05 08:35:44;;;;;;;17.70;15.80;;;;;;;20.79;44.10;95045.28;5062389;28;20201;-73
2022/05/05 08:38:10;;;;;;;23.20;16.97;;;;;;;21.60;42.87;95039.19;5063753;28;20178;-73
2022/05/05 08:40:39;;;;;;;18.20;15.80;;;;;;;21.56;43.18;95039.97;5063979;28;20170;-72
2022/05/05 08:43:05;;;;;;;18.37;16.10;;;;;;;22.25;41.28;95038.31;5061566;28;20203;-72
2022/05/05 08:45:32;;;;;;;16.50;14.70;;;;;;;22.01;41.58;95042.16;5064350;28;20448;-73
2022/05/05 08:48:01;;;;;;;18.90;16.40;;;;;;;21.67;42.36;95041.66;5063300;28;20175;-73
2022/05/05 08:50:28;;;;;;;15.53;13.93;;;;;;;20.41;44.12;95041.59;5062305;28;20433;-73
2022/05/05 08:52:53;;;;;;;16.50;14.60;;;;;;;21.10;42.86;95037.63;5059408;28;20440;-72
2022/05/05 08:55:21;;;;;;;18.83;14.70;;;;;;;21.40;42.41;95036.34;5059748;28;20417;-72
2022/05/05 08:57:47;;;;;;;22.10;16.13;;;;;;;21.74;41.26;95030.78;5063560;28;20241;-73
2022/05/05 09:00:15;;;;;;;19.83;13.70;;;;;;;22.42;40.18;95033.63;5060163;28;20427;-73
2022/05/05 09:02:41;;;;;;;14.67;13.10;;;;;;;23.07;39.18;95028.84;5063663;28;20456;-73
2022/05/05 09:05:08;;;;;;;18.63;14.60;;;;;;;23.01;38.75;95040.53;5058953;28;20421;-73
2022/05/05 09:07:51;;;;;;;18.20;14.50;;;;;;;22.78;38.84;95031.94;5047959;28;20432;-73
2022/05/05 09:10:19;;;;;;;18.73;13.80;;;;;;;23.10;38.49;95032.84;5063010;28;20481;-72
2022/05/05 09:13:00;;;;;;;18.80;12.57;;;;;;;23.26;37.54;95031.00;5069326;28;20516;-73
2022/05/05 09:15:31;;;;;;;15.30;12.23;;;;;;;23.45;35.83;95028.63;5066146;28;20423;-73
2022/05/05 09:18:13;;;;;;;11.27;9.00;;;;;;;23.63;34.66;95022.78;5065127;28;20588;-73
2022/05/05 09:20:40;;;;;;;10.30;9.30;;;;;;;23.85;34.03;95027.09;5068224;28;20415;-73
2022/05/05 09:23:06;;;;;;;10.10;8.23;;;;;;;24.67;31.86;95027.72;5058087;28;20468;-72
2022/05/05 09:25:48;;;;;;;8.40;7.60;;;;;;;24.07;33.12;95018.75;5062961;28;20766;-73
2022/05/05 09:28:18;;;;;;;15.97;10.03;;;;;;;23.71;34.31;95026.78;5060442;28;20202;-72
2022/05/05 09:30:52;;;;;;;11.43;10.23;;;;;;;24.04;34.90;95024.66;5062319;28;20476;-73
2022/05/05 09:33:43;;;;;;;11.10;9.93;;;;;;;24.17;34.09;95019.53;5065367;28;20431;-73
2022/05/05 09:36:13;;;;;;;9.80;8.90;;;;;;;25.13;32.39;95019.44;5058002;28;20422;-72
2022/05/05 09:39:02;;;;;;;10.50;8.57;;;;;;;24.91;31.47;95021.75;5068212;28;20464;-73
2022/05/05 09:41:30;;;;;;;10.43;7.30;;;;;;;23.84;32.23;95015.56;5059211;28;20463;-73
2022/05/05 09:43:57;;;;;;;6.20;5.60;;;;;;;24.27;30.63;95017.94;5066257;28;20472;-72
2022/05/05 09:46:23;;;;;;;5.60;4.00;;;;;;;24.59;29.24;95006.09;5065863;28;20419;-73
2022/05/05 09:49:07;;;;;;;4.57;3.93;;;;;;;25.26;27.93;95010.03;5063795;28;20429;-73
2022/05/05 09:51:44;;;;;;;5.67;5.17;;;;;;;25.86;28.64;95012.53;5057647;28;20205;-72
2022/05/05 09:59:49;;;;;;;6.00;5.33;;;;;;;24.72;29.94;94998.25;5061444;28;20764;-73
2022/05/05 10:04:00;;;;;;;5.20;4.70;;;;;;;25.44;28.19;94997.88;5062187;28;20463;-73
2022/05/05 10:05:09;;;;;;;5.43;5.00;;;;;;;25.59;27.57;95001.50;5066737;28;21131;-72
2022/05/05 10:07:38;;;;;;;5.43;4.93;;;;;;;25.72;27.41;95000.84;5067076;28;20404;-73
2022/05/05 10:10:06;;;;;;;4.30;4.00;;;;;;;25.95;26.83;94985.13;5056975;28;20414;-73
2022/05/05 10:12:33;;;;;;;5.27;4.83;;;;;;;26.26;27.11;94994.47;5064677;28;20433;-73
2022/05/05 10:14:59;;;;;;;8.40;5.23;;;;;;;26.57;27.78;94994.13;5066073;28;20412;-73
2022/05/05 10:17:25;;;;;;;4.37;4.07;;;;;;;25.98;26.58;94997.97;5067253;28;20756;-73
2022/05/05 10:19:52;;;;;;;3.40;3.20;;;;;;;26.10;26.26;94999.22;5065095;28;20492;-73
2022/05/05 10:22:29;;;;;;;4.63;3.10;;;;;;;26.44;26.55;95003.66;5065901;28;20194;-73
2022/05/05 10:25:01;;;;;;;3.23;2.43;;;;;;;26.83;24.40;95002.69;5058835;28;20442;-73
2022/05/05 10:27:27;;;;;;;3.37;3.07;;;;;;;26.74;25.32;94998.25;5066750;28;20418;-73
2022/05/05 10:29:52;;;;;;;3.63;3.33;;;;;;;27.09;24.78;95005.06;5067709;28;20548;-72
2022/05/05 10:32:24;;;;;;;4.30;3.80;;;;;;;27.05;24.59;95002.16;5067099;28;20161;-73
2022/05/05 10:35:01;;;;;;;4.57;3.87;;;;;;;25.78;27.09;95001.59;5067260;28;20175;-73
2022/05/05 10:37:37;;;;;;;2.90;2.70;;;;;;;26.57;25.33;95002.16;5055717;28;20775;-73
2022/05/05 10:40:06;;;;;;;3.07;2.87;;;;;;;26.68;25.67;95000.19;5064630;28;20413;-73
2022/05/05 10:42:45;;;;;;;4.00;3.60;;;;;;;26.51;25.78;95002.53;5065162;28;20476;-73
2022/05/05 10:45:30;;;;;;;3.53;3.23;;;;;;;26.05;26.68;95003.81;5065301;28;20405;-72
2022/05/05 10:47:58;;;;;;;3.30;3.00;;;;;;;26.58;26.49;95003.78;5087571;28;20481;-72
2022/05/05 10:50:56;;;;;;;3.43;3.23;;;;;;;26.58;25.56;94995.72;5063854;28;20420;-73
2022/05/05 10:53:39;;;;;;;2.67;2.57;;;;;;;26.84;25.61;94998.94;5066826;28;20532;-72
2022/05/05 10:56:26;;;;;;;3.70;3.10;;;;;;;26.58;25.80;94997.59;5066804;28;20468;-72
2022/05/05 10:59:04;;;;;;;2.80;2.60;;;;;;;27.20;25.87;95001.09;5094022;28;20441;-73
2022/05/05 11:01:41;;;;;;;4.07;3.87;;;;;;;27.32;25.97;94999.91;5062258;28;20418;-73
2022/05/05 11:04:07;;;;;;;10.80;8.40;;;;;;;27.19;25.92;95001.41;5066486;28;20807;-72
2022/05/05 11:06:33;;;;;;;3.00;2.80;;;;;;;27.84;25.40;94996.09;5050887;28;20418;-73
2022/05/05 11:08:59;;;;;;;3.10;2.90;;;;;;;27.62;25.48;94998.63;5062873;28;20204;-72
2022/05/05 11:11:44;;;;;;;3.00;2.80;;;;;;;26.60;25.02;94993.59;5060210;28;20417;-73
2022/05/05 11:22:57;;;;;;;4.50;3.40;;;;;;;27.74;24.16;94990.91;5053395;28;20476;-74
2022/05/05 11:25:24;;;;;;;5.63;3.00;;;;;;;28.02;24.03;94993.69;5061276;28;20528;-72
2022/05/05 11:27:55;;;;;;;2.80;2.70;;;;;;;27.77;24.62;94989.50;5058825;28;20428;-72
2022/05/05 11:30:21;;;;;;;2.47;2.37;;;;;;;28.19;24.36;94987.72;5062199;28;20461;-72
2022/05/05 11:32:47;;;;;;;2.93;2.83;;;;;;;28.21;23.67;94986.34;5064590;28;20432;-73
2022/05/05 11:35:20;;;;;;;2.80;2.60;;;;;;;28.51;23.38;94997.63;5066082;28;20408;-72
2022/05/05 11:37:45;;;;;;;3.43;2.50;;;;;;;28.24;24.05;94998.41;5057398;28;20437;-73
2022/05/05 11:40:12;;;;;;;2.67;2.30;;;;;;;28.66;23.25;94995.75;5062547;28;20402;-73
2022/05/05 11:44:14;;;;;;;2.43;2.10;;;;;;;28.47;23.69;94991.22;5052914;28;20202;-74
2022/05/05 11:45:28;;;;;;;3.13;2.43;;;;;;;28.07;24.12;94993.59;5065356;28;20427;-73
2022/05/05 11:47:55;;;;;;;3.60;2.80;;;;;;;28.50;23.59;94992.56;5065217;28;20496;-74
2022/05/05 11:50:20;;;;;;;4.23;2.77;;;;;;;28.18;23.28;94994.22;5065002;28;20174;-73
2022/05/05 11:52:46;;;;;;;2.87;2.53;;;;;;;28.83;23.50;94993.25;5065347;28;20429;-73
2022/05/05 11:55:13;;;;;;;2.40;2.20;;;;;;;28.25;23.15;94975.78;5065333;28;20185;-73
2022/05/05 11:57:41;;;;;;;2.60;2.40;;;;;;;27.69;24.43;94977.53;5065050;28;20174;-73
2022/05/05 12:02:54;;;;;;;3.00;2.10;;;;;;;29.38;21.80;94968.84;5064471;28;20475;-73
2022/05/05 12:05:24;;;;;;;2.40;2.03;;;;;;;28.73;22.25;94971.91;5063956;28;20422;-72
2022/05/05 12:07:51;;;;;;;2.60;2.40;;;;;;;29.10;22.14;94973.53;5055719;28;20496;-73